createdAt,value
2022-09-16T00:00:44.576Z,98484.63
2022-09-16T00:03:12.733Z,98493.53
2022-09-16T00:05:43.528Z,98495.59
2022-09-16T00:08:11.477Z,98484.91
2022-09-16T00:10:39.473Z,98494.44
2022-09-16T00:13:09.264Z,98494.28
2022-09-16T00:15:37.401Z,98491.63
2022-09-16T00:18:05.473Z,98492.25
2022-09-16T00:20:33.234Z,98493.31
2022-09-16T00:23:01.050Z,98493.03
2022-09-16T00:25:29.192Z,98489.06
2022-09-16T00:27:56.944Z,98485.75
2022-09-16T00:30:26.031Z,98493.84
2022-09-16T00:32:53.888Z,98498.69
2022-09-16T00:35:22.867Z,98480.38
2022-09-16T00:37:51.218Z,98483.19
2022-09-16T00:40:19.235Z,98486.66
2022-09-16T00:42:46.976Z,98480.53
2022-09-16T00:45:19.819Z,98487.13
2022-09-16T00:47:52.662Z,98479.75
2022-09-16T00:50:26.766Z,98484.41
2022-09-16T00:52:55.672Z,98480.97
2022-09-16T00:55:27.374Z,98489.69
2022-09-16T00:57:57.903Z,98488.91
2022-09-16T01:00:25.542Z,98492.16
2022-09-16T01:02:54.744Z,98495.03
2022-09-16T01:05:25.839Z,98485.81
2022-09-16T01:07:55.343Z,98496.78
2022-09-16T01:10:27.534Z,98493.50
2022-09-16T01:12:57.913Z,98492.44
2022-09-16T01:15:32.445Z,98497.28
2022-09-16T01:18:12.619Z,98504.63
2022-09-16T01:21:04.246Z,98504.31
2022-09-16T01:24:05.867Z,98506.84
2022-09-16T01:27:02.141Z,98501.34
2022-09-16T01:30:08.581Z,98497.28
2022-09-16T01:32:45.132Z,98496.34
2022-09-16T01:35:22.855Z,98491.06
2022-09-16T01:38:05.184Z,98495.88
2022-09-16T01:40:40.338Z,98500.28
2022-09-16T01:43:17.650Z,98492.13
2022-09-16T01:45:55.034Z,98491.84
2022-09-16T01:48:30.948Z,98495.91
2022-09-16T01:51:06.085Z,98486.06
2022-09-16T01:53:38.690Z,98488.09
2022-09-16T01:56:13.734Z,98482.63
2022-09-16T01:58:48.370Z,98491.53
2022-09-16T02:01:23.446Z,98488.84
2022-09-16T02:03:59.631Z,98487.59
2022-09-16T02:06:31.280Z,98481.06
2022-09-16T02:09:02.277Z,98480.59
2022-09-16T02:11:30.419Z,98487.00
2022-09-16T02:14:04.746Z,98489.63
2022-09-16T02:16:37.078Z,98478.88
2022-09-16T02:19:13.431Z,98485.28
2022-09-16T02:21:45.801Z,98478.88
2022-09-16T02:24:18.175Z,98470.31
2022-09-16T02:26:49.800Z,98477.63
2022-09-16T02:29:22.181Z,98477.78
2022-09-16T02:31:55.743Z,98481.38
2022-09-16T02:34:29.734Z,98478.09
2022-09-16T02:37:02.395Z,98486.03
2022-09-16T02:39:33.419Z,98487.13
2022-09-16T02:42:02.370Z,98476.06
2022-09-16T02:44:30.796Z,98490.53
2022-09-16T02:47:02.538Z,98481.06
2022-09-16T02:49:42.170Z,98476.66
2022-09-16T02:52:17.287Z,98478.56
2022-09-16T02:54:51.243Z,98484.03
2022-09-16T02:57:19.125Z,98474.34
2022-09-16T02:59:47.030Z,98478.84
2022-09-16T03:02:15.157Z,98472.50
2022-09-16T03:04:44.305Z,98476.53
2022-09-16T03:07:13.699Z,98478.72
2022-09-16T03:09:44.868Z,98476.53
2022-09-16T03:12:22.537Z,98473.09
2022-09-16T03:15:29.215Z,98481.34
2022-09-16T03:18:14.194Z,98472.78
2022-09-16T03:20:50.984Z,98491.03
2022-09-16T03:23:28.719Z,98496.16
2022-09-16T03:26:01.273Z,98488.84
2022-09-16T03:28:38.797Z,98493.50
2022-09-16T03:31:09.125Z,98498.00
2022-09-16T03:33:43.815Z,98485.09
2022-09-16T03:36:17.440Z,98490.56
2022-09-16T03:38:46.260Z,98483.69
2022-09-16T03:41:14.980Z,98488.38
2022-09-16T03:43:53.821Z,98478.38
2022-09-16T03:46:21.886Z,98476.06
2022-09-16T03:48:49.844Z,98471.88
2022-09-16T03:51:19.174Z,98460.78
2022-09-16T03:53:46.992Z,98453.78
2022-09-16T03:56:15.100Z,98461.56
2022-09-16T03:58:42.864Z,98452.69
2022-09-16T04:01:10.675Z,98452.19
2022-09-16T04:03:38.489Z,98449.84
2022-09-16T04:06:06.752Z,98442.38
2022-09-16T04:08:36.086Z,98425.41
2022-09-16T04:11:06.335Z,98422.13
2022-09-16T04:13:35.558Z,98446.28
2022-09-16T04:16:04.979Z,98447.38
2022-09-16T04:18:33.840Z,98448.94
2022-09-16T04:21:03.031Z,98445.94
2022-09-16T04:23:32.022Z,98453.63
2022-09-16T04:26:03.315Z,98448.94
2022-09-16T04:28:32.748Z,98455.16
2022-09-16T04:31:02.930Z,98463.56
2022-09-16T04:33:31.405Z,98463.22
2022-09-16T04:36:06.292Z,98472.09
2022-09-16T04:38:34.050Z,98465.41
2022-09-16T04:41:04.625Z,98469.00
2022-09-16T04:43:32.250Z,98466.19
2022-09-16T04:46:00.585Z,98472.72
2022-09-16T04:48:29.182Z,98473.81
2022-09-16T04:51:03.940Z,98471.50
2022-09-16T04:53:31.900Z,98470.56
2022-09-16T04:56:06.532Z,98471.81
2022-09-16T04:58:35.056Z,98465.22
2022-09-16T05:01:07.970Z,98475.53
2022-09-16T05:03:35.906Z,98476.63
2022-09-16T05:06:09.503Z,98477.59
2022-09-16T05:08:37.788Z,98483.75
2022-09-16T05:11:09.140Z,98486.75
2022-09-16T05:13:37.482Z,98485.63
2022-09-16T05:16:07.515Z,98484.72
2022-09-16T05:18:36.469Z,98477.47
2022-09-16T05:21:07.441Z,98481.50
2022-09-16T05:23:36.104Z,98485.97
2022-09-16T05:26:05.210Z,98481.19
2022-09-16T05:28:34.875Z,98485.22
2022-09-16T05:31:10.559Z,98482.09
2022-09-16T05:33:38.900Z,98477.75
2022-09-16T05:36:08.646Z,98486.34
2022-09-16T05:38:36.525Z,98481.69
2022-09-16T05:41:05.727Z,98477.00
2022-09-16T05:43:36.064Z,98483.25
2022-09-16T05:46:04.737Z,98474.81
2022-09-16T05:48:33.497Z,98481.38
2022-09-16T05:51:02.827Z,98476.53
2022-09-16T05:53:32.167Z,98491.81
2022-09-16T05:56:01.601Z,98489.63
2022-09-16T05:58:31.536Z,98492.06
2022-09-16T06:01:01.941Z,98482.13
2022-09-16T06:03:30.521Z,98489.91
2022-09-16T06:06:02.188Z,98494.56
2022-09-16T06:08:31.277Z,98487.59
2022-09-16T06:11:02.133Z,98493.94
2022-09-16T06:13:29.934Z,98489.72
2022-09-16T06:15:59.130Z,98493.97
2022-09-16T06:18:30.571Z,98495.66
2022-09-16T06:20:59.508Z,98493.03
2022-09-16T06:23:27.235Z,98495.72
2022-09-16T06:26:01.202Z,98498.53
2022-09-16T06:28:28.992Z,98511.28
2022-09-16T06:31:05.816Z,98509.59
2022-09-16T06:33:36.961Z,98508.97
2022-09-16T06:36:06.168Z,98509.16
2022-09-16T06:38:34.022Z,98506.50
2022-09-16T06:41:02.661Z,98502.88
2022-09-16T06:43:30.924Z,98495.28
2022-09-16T06:46:00.427Z,98494.19
2022-09-16T06:48:28.513Z,98493.38
2022-09-16T06:51:01.891Z,98501.81
2022-09-16T06:53:30.041Z,98499.00
2022-09-16T06:56:01.359Z,98490.09
2022-09-16T06:58:30.241Z,98494.78
2022-09-16T07:00:58.118Z,98498.69
2022-09-16T07:03:26.045Z,98489.34
2022-09-16T07:05:58.541Z,98490.59
2022-09-16T07:08:29.780Z,98493.41
2022-09-16T07:10:59.104Z,98490.75
2022-09-16T07:13:27.347Z,98488.41
2022-09-16T07:16:12.380Z,98499.00
2022-09-16T07:18:40.879Z,98497.31
2022-09-16T07:21:15.097Z,98494.66
2022-09-16T07:23:45.187Z,98494.00
2022-09-16T07:26:15.568Z,98485.25
2022-09-16T07:28:44.150Z,98497.94
2022-09-16T07:31:13.748Z,98499.00
2022-09-16T07:33:44.582Z,98494.91
2022-09-16T07:36:14.879Z,98491.06
2022-09-16T07:38:44.303Z,98498.50
2022-09-16T07:41:14.029Z,98490.78
2022-09-16T07:43:43.374Z,98494.69
2022-09-16T07:46:13.208Z,98491.31
2022-09-16T07:48:41.923Z,98493.44
2022-09-16T07:51:11.995Z,98489.84
2022-09-16T07:53:40.531Z,98493.38
2022-09-16T07:56:13.068Z,98501.69
2022-09-16T07:58:41.338Z,98504.94
2022-09-16T08:01:09.896Z,98509.47
2022-09-16T08:03:39.893Z,98502.91
2022-09-16T08:06:10.765Z,98505.53
2022-09-16T08:08:38.505Z,98512.72
2022-09-16T08:11:07.657Z,98514.63
2022-09-16T08:13:38.206Z,98512.50
2022-09-16T08:16:07.303Z,98520.22
2022-09-16T08:18:35.689Z,98505.44
2022-09-16T08:21:08.043Z,98508.25
2022-09-16T08:23:36.294Z,98510.19
2022-09-16T08:26:05.676Z,98512.50
2022-09-16T08:28:45.123Z,98508.84
2022-09-16T08:31:21.659Z,98512.00
2022-09-16T08:33:49.687Z,98514.75
2022-09-16T08:36:19.841Z,98514.31
2022-09-16T08:38:49.729Z,98514.16
2022-09-16T08:41:43.930Z,98505.16
2022-09-16T08:44:22.348Z,98511.19
2022-09-16T08:46:55.354Z,98513.84
2022-09-16T08:49:33.881Z,98524.94
2022-09-16T08:52:05.996Z,98522.41
2022-09-16T08:54:38.470Z,98516.19
2022-09-16T08:57:12.647Z,98516.75
2022-09-16T08:59:44.402Z,98502.78
2022-09-16T09:02:28.377Z,98505.88
2022-09-16T09:04:56.611Z,98511.91
2022-09-16T09:07:33.265Z,98517.28
2022-09-16T09:10:12.012Z,98516.63
2022-09-16T09:12:45.146Z,98513.09
2022-09-16T09:15:32.286Z,98511.25
2022-09-16T09:18:16.120Z,98503.19
2022-09-16T09:20:50.578Z,98507.59
2022-09-16T09:23:32.371Z,98500.50
2022-09-16T09:26:09.886Z,98503.09
2022-09-16T09:29:07.629Z,98488.50
2022-09-16T09:31:44.907Z,98490.91
2022-09-16T09:34:34.919Z,98501.97
2022-09-16T09:37:20.142Z,98490.75
2022-09-16T09:39:59.503Z,98485.66
2022-09-16T09:42:30.855Z,98494.41
2022-09-16T09:45:04.687Z,98481.53
2022-09-16T09:47:37.460Z,98492.81
2022-09-16T09:50:16.406Z,98492.44
2022-09-16T09:52:51.064Z,98486.72
2022-09-16T09:55:21.651Z,98480.66
2022-09-16T09:57:58.020Z,98490.06
2022-09-16T10:00:25.833Z,98489.25
2022-09-16T10:02:53.743Z,98492.34
2022-09-16T10:05:25.933Z,98493.13
2022-09-16T10:07:56.725Z,98493.66
2022-09-16T10:10:27.390Z,98485.75
2022-09-16T10:12:55.230Z,98477.44
2022-09-16T10:15:25.199Z,98483.47
2022-09-16T10:17:54.312Z,98485.06
2022-09-16T10:20:34.875Z,98479.28
2022-09-16T10:23:03.994Z,98469.16
2022-09-16T10:25:33.619Z,98472.78
2022-09-16T10:28:03.379Z,98471.56
2022-09-16T10:30:34.266Z,98470.56
2022-09-16T10:33:04.953Z,98473.13
2022-09-16T10:35:36.460Z,98467.22
2022-09-16T10:38:16.738Z,98464.81
2022-09-16T10:40:53.018Z,98466.13
2022-09-16T10:43:21.450Z,98461.13
2022-09-16T10:45:51.655Z,98464.81
2022-09-16T10:48:21.900Z,98470.47
2022-09-16T10:50:58.992Z,98471.75
2022-09-16T10:53:39.126Z,98468.88
2022-09-16T10:56:08.526Z,98476.16
2022-09-16T10:58:36.354Z,98471.75
2022-09-16T11:01:19.149Z,98472.88
2022-09-16T11:04:31.934Z,98462.59
2022-09-16T11:07:14.288Z,98465.69
2022-09-16T11:09:50.115Z,98467.22
2022-09-16T11:12:52.717Z,98465.50
2022-09-16T11:15:33.141Z,98454.63
2022-09-16T11:18:16.888Z,98456.03
2022-09-16T11:21:08.876Z,98466.56
2022-09-16T11:23:55.084Z,98457.59
2022-09-16T11:26:30.903Z,98453.13
2022-09-16T11:29:13.738Z,98453.13
2022-09-16T11:31:49.101Z,98449.94
2022-09-16T11:34:28.874Z,98447.50
2022-09-16T11:37:07.135Z,98452.75
2022-09-16T11:40:06.175Z,98445.41
2022-09-16T11:42:36.376Z,98447.72
2022-09-16T11:45:22.700Z,98438.66
2022-09-16T11:48:01.372Z,98439.13
2022-09-16T11:50:41.457Z,98445.97
2022-09-16T11:53:39.275Z,98441.59
2022-09-16T11:56:15.370Z,98436.22
2022-09-16T11:58:48.978Z,98436.13
2022-09-16T12:01:27.202Z,98428.16
2022-09-16T12:04:00.644Z,98435.44
2022-09-16T12:06:32.297Z,98427.34
2022-09-16T12:09:05.461Z,98438.78
2022-09-16T12:11:43.892Z,98427.91
2022-09-16T12:14:16.783Z,98419.50
2022-09-16T12:16:48.219Z,98419.91
2022-09-16T12:19:22.624Z,98418.53
2022-09-16T12:21:57.915Z,98416.25
2022-09-16T12:24:34.050Z,98416.97
2022-09-16T12:27:10.290Z,98428.75
2022-09-16T12:29:45.287Z,98422.69
2022-09-16T12:32:19.242Z,98419.41
2022-09-16T12:34:52.330Z,98415.97
2022-09-16T12:37:33.939Z,98409.91
2022-09-16T12:40:02.237Z,98412.34
2022-09-16T12:42:58.142Z,98422.69
2022-09-16T12:46:04.458Z,98411.41
2022-09-16T12:49:20.250Z,98417.34
2022-09-16T12:52:13.863Z,98402.47
2022-09-16T12:55:08.826Z,98410.31
2022-09-16T12:57:53.600Z,98403.22
2022-09-16T13:00:23.096Z,98408.03
2022-09-16T13:02:54.666Z,98406.03
2022-09-16T13:05:28.277Z,98400.25
2022-09-16T13:08:01.780Z,98401.16
2022-09-16T13:10:54.941Z,98400.13
2022-09-16T13:13:31.004Z,98392.88
2022-09-16T13:16:00.828Z,98389.19
2022-09-16T13:18:41.732Z,98389.31
2022-09-16T13:21:22.513Z,98391.13
2022-09-16T13:24:00.483Z,98378.47
2022-09-16T13:26:39.893Z,98380.53
2022-09-16T13:29:28.547Z,98380.78
2022-09-16T13:34:30.113Z,98371.06
2022-09-16T13:36:58.846Z,98370.66
2022-09-16T13:39:31.404Z,98364.81
2022-09-16T13:42:11.363Z,98358.88
2022-09-16T13:44:44.028Z,98371.38
2022-09-16T13:47:29.524Z,98377.69
2022-09-16T13:50:01.175Z,98377.69
2022-09-16T13:52:31.669Z,98377.66
2022-09-16T13:55:11.386Z,98389.38
2022-09-16T13:57:52.879Z,98375.13
2022-09-16T14:00:24.376Z,98375.38
2022-09-16T14:03:35.814Z,98370.56
2022-09-16T14:06:20.001Z,98370.06
2022-09-16T14:08:59.194Z,98372.44
2022-09-16T14:11:36.058Z,98370.41
2022-09-16T14:14:08.322Z,98365.78
2022-09-16T14:16:42.727Z,98370.22
2022-09-16T14:19:24.361Z,98378.25
2022-09-16T14:22:06.964Z,98378.66
2022-09-16T14:24:36.817Z,98381.31
2022-09-16T14:27:05.535Z,98371.81
2022-09-16T14:29:33.738Z,98371.97
2022-09-16T14:32:04.921Z,98379.47
2022-09-16T14:34:36.319Z,98376.72
2022-09-16T14:37:06.263Z,98383.84
2022-09-16T14:39:35.676Z,98373.66
2022-09-16T14:42:07.237Z,98380.09
2022-09-16T14:44:37.943Z,98385.75
2022-09-16T14:47:29.471Z,98387.84
2022-09-16T14:50:09.233Z,98394.91
2022-09-16T14:52:37.120Z,98396.94
2022-09-16T14:55:09.704Z,98395.22
2022-09-16T14:57:37.988Z,98396.16
2022-09-16T15:00:11.663Z,98395.13
2022-09-16T15:02:45.022Z,98396.25
2022-09-16T15:05:21.332Z,98391.38
2022-09-16T15:08:09.951Z,98398.16
2022-09-16T15:10:51.653Z,98406.03
2022-09-16T15:13:22.274Z,98414.84
2022-09-16T15:15:52.986Z,98410.81
2022-09-16T15:18:26.984Z,98408.28
2022-09-16T15:21:02.384Z,98403.94
2022-09-16T15:23:31.838Z,98414.97
2022-09-16T15:26:13.460Z,98405.78
2022-09-16T15:28:52.430Z,98405.94
2022-09-16T15:31:29.014Z,98404.28
2022-09-16T15:34:00.576Z,98402.56
2022-09-16T15:36:38.647Z,98404.56
2022-09-16T15:39:07.862Z,98407.56
2022-09-16T15:41:35.720Z,98403.28
2022-09-16T15:44:10.163Z,98399.41
2022-09-16T15:46:38.315Z,98398.56
2022-09-16T15:49:14.593Z,98402.94
2022-09-16T15:51:47.875Z,98416.06
2022-09-16T15:54:22.000Z,98424.47
2022-09-16T15:56:57.920Z,98407.59
2022-09-16T15:59:32.322Z,98413.72
2022-09-16T16:02:05.615Z,98405.97
2022-09-16T16:04:35.911Z,98406.16
2022-09-16T16:07:05.615Z,98409.81
2022-09-16T16:09:39.998Z,98421.97
2022-09-16T16:12:10.765Z,98416.47
2022-09-16T16:14:40.268Z,98422.88
2022-09-16T16:17:14.424Z,98420.56
2022-09-16T16:19:46.511Z,98429.16
2022-09-16T16:22:15.946Z,98427.28
2022-09-16T16:24:43.821Z,98427.19
2022-09-16T16:27:11.699Z,98430.66
2022-09-16T16:29:39.604Z,98430.56
2022-09-16T16:32:09.927Z,98433.88
2022-09-16T16:34:40.212Z,98431.44
2022-09-16T16:37:23.182Z,98433.34
2022-09-16T16:39:58.792Z,98434.72
2022-09-16T16:42:28.678Z,98429.75
2022-09-16T16:44:57.153Z,98432.56
2022-09-16T16:47:25.260Z,98428.53
2022-09-16T16:49:53.200Z,98424.47
2022-09-16T16:52:22.492Z,98427.97
2022-09-16T16:54:50.394Z,98437.19
2022-09-16T16:57:18.215Z,98423.50
2022-09-16T16:59:46.125Z,98424.03
2022-09-16T17:02:14.995Z,98431.47
2022-09-16T17:04:43.051Z,98433.53
2022-09-16T17:07:27.690Z,98429.56
2022-09-16T17:09:58.634Z,98423.34
2022-09-16T17:12:26.758Z,98434.03
2022-09-16T17:14:54.730Z,98433.84
2022-09-16T17:17:25.278Z,98429.28
2022-09-16T17:19:55.689Z,98431.19
2022-09-16T17:22:23.496Z,98440.13
2022-09-16T17:24:51.341Z,98436.59
2022-09-16T17:27:21.848Z,98443.28
2022-09-16T17:29:49.436Z,98435.72
2022-09-16T17:32:17.304Z,98436.03
2022-09-16T17:34:45.245Z,98449.69
2022-09-16T17:37:14.509Z,98450.06
2022-09-16T17:39:42.480Z,98453.22
2022-09-16T17:42:10.286Z,98457.19
2022-09-16T17:44:39.559Z,98455.41
2022-09-16T17:47:07.497Z,98449.19
2022-09-16T17:49:35.280Z,98444.25
2022-09-16T17:52:03.514Z,98442.03
2022-09-16T17:54:31.388Z,98454.84
2022-09-16T17:56:59.158Z,98453.31
2022-09-16T17:59:27.100Z,98457.41
2022-09-16T18:01:56.922Z,98472.47
2022-09-16T18:04:24.945Z,98469.50
2022-09-16T18:06:52.714Z,98473.25
2022-09-16T18:09:20.667Z,98467.34
2022-09-16T18:11:48.761Z,98471.88
2022-09-16T18:14:21.290Z,98462.22
2022-09-16T18:16:51.148Z,98476.69
2022-09-16T18:19:20.687Z,98476.06
2022-09-16T18:21:48.492Z,98468.91
2022-09-16T18:24:16.349Z,98475.94
2022-09-16T18:26:44.643Z,98483.41
2022-09-16T18:29:14.190Z,98488.31
2022-09-16T18:31:43.684Z,98502.06
2022-09-16T18:34:12.429Z,98495.22
2022-09-16T18:36:41.961Z,98501.97
2022-09-16T18:39:13.241Z,98504.78
2022-09-16T18:41:42.641Z,98510.72
2022-09-16T18:44:14.414Z,98511.19
2022-09-16T18:46:42.345Z,98520.16
2022-09-16T18:49:12.482Z,98519.59
2022-09-16T18:51:47.283Z,98514.16
2022-09-16T18:54:24.379Z,98509.91
2022-09-16T18:56:53.021Z,98513.16
2022-09-16T18:59:24.250Z,98521.47
2022-09-16T19:01:54.160Z,98519.91
2022-09-16T19:04:24.475Z,98514.72
2022-09-16T19:06:56.972Z,98516.16
2022-09-16T19:09:25.448Z,98524.88
2022-09-16T19:11:54.600Z,98520.09
2022-09-16T19:14:24.816Z,98518.59
2022-09-16T19:16:53.177Z,98528.59
2022-09-16T19:19:23.387Z,98522.09
2022-09-16T19:21:51.450Z,98519.47
2022-09-16T19:24:22.795Z,98520.97
2022-09-16T19:26:53.648Z,98524.22
2022-09-16T19:29:22.562Z,98537.22
2022-09-16T19:31:52.794Z,98534.84
2022-09-16T19:34:22.081Z,98538.28
2022-09-16T19:36:50.850Z,98540.97
2022-09-16T19:39:21.195Z,98548.75
2022-09-16T19:41:49.080Z,98548.06
2022-09-16T19:44:18.894Z,98553.44
2022-09-16T19:46:49.123Z,98551.59
2022-09-16T19:49:19.821Z,98544.59
2022-09-16T19:51:48.362Z,98546.56
2022-09-16T19:54:16.923Z,98552.66
2022-09-16T19:56:50.331Z,98543.69
2022-09-16T19:59:19.399Z,98541.06
2022-09-16T20:01:47.593Z,98537.03
2022-09-16T20:04:19.476Z,98537.03
2022-09-16T20:06:47.547Z,98541.09
2022-09-16T20:09:15.545Z,98537.53
2022-09-16T20:11:45.035Z,98538.44
2022-09-16T20:14:16.250Z,98548.19
2022-09-16T20:16:44.761Z,98546.16
2022-09-16T20:19:15.447Z,98545.41
2022-09-16T20:21:44.189Z,98549.94
2022-09-16T20:24:18.015Z,98550.22
2022-09-16T20:26:46.000Z,98554.25
2022-09-16T20:29:17.211Z,98550.66
2022-09-16T20:31:45.996Z,98553.00
2022-09-16T20:34:16.119Z,98560.28
2022-09-16T20:36:45.884Z,98565.31
2022-09-16T20:39:14.537Z,98566.22
2022-09-16T20:41:43.002Z,98569.88
2022-09-16T20:44:13.812Z,98568.47
2022-09-16T20:46:43.053Z,98570.56
2022-09-16T20:49:15.934Z,98579.41
2022-09-16T20:51:44.273Z,98566.56
2022-09-16T20:54:14.118Z,98580.84
2022-09-16T20:56:43.341Z,98574.28
2022-09-16T20:59:13.494Z,98573.50
2022-09-16T21:01:43.767Z,98581.75
2022-09-16T21:04:13.657Z,98575.59
2022-09-16T21:06:41.852Z,98578.84
2022-09-16T21:09:11.457Z,98585.31
2022-09-16T21:11:43.618Z,98587.25
2022-09-16T21:14:14.560Z,98585.09
2022-09-16T21:16:45.364Z,98589.81
2022-09-16T21:19:13.754Z,98598.19
2022-09-16T21:21:44.695Z,98598.53
2022-09-16T21:24:13.371Z,98600.88
2022-09-16T21:26:42.024Z,98597.28
2022-09-16T21:29:11.903Z,98598.31
2022-09-16T21:31:41.643Z,98593.28
2022-09-16T21:34:14.020Z,98594.16
2022-09-16T21:36:42.066Z,98593.06
2022-09-16T21:39:09.968Z,98591.63
2022-09-16T21:41:38.059Z,98599.03
2022-09-16T21:44:06.301Z,98592.84
2022-09-16T21:46:39.630Z,98602.56
2022-09-16T21:49:08.776Z,98604.44
2022-09-16T21:51:38.971Z,98601.94
2022-09-16T21:54:09.007Z,98602.69
2022-09-16T21:56:38.363Z,98610.59
2022-09-16T21:59:06.265Z,98604.97
2022-09-16T22:01:35.051Z,98592.16
2022-09-16T22:04:05.281Z,98596.59
2022-09-16T22:06:33.969Z,98586.06
2022-09-16T22:09:06.960Z,98589.69
2022-09-16T22:11:36.204Z,98583.44
2022-09-16T22:14:04.470Z,98584.91
2022-09-16T22:16:35.434Z,98590.47
2022-09-16T22:19:06.879Z,98590.69
2022-09-16T22:21:36.933Z,98586.28
2022-09-16T22:24:07.403Z,98592.47
2022-09-16T22:26:35.647Z,98587.44
2022-09-16T22:29:03.808Z,98588.81
2022-09-16T22:31:34.229Z,98581.22
2022-09-16T22:34:02.746Z,98586.91
2022-09-16T22:36:32.786Z,98584.56
2022-09-16T22:39:02.419Z,98581.09
2022-09-16T22:41:32.284Z,98589.47
2022-09-16T22:44:00.244Z,98590.78
2022-09-16T22:46:30.877Z,98580.63
2022-09-16T22:49:00.128Z,98576.31
2022-09-16T22:51:29.131Z,98579.81
2022-09-16T22:53:57.131Z,98575.97
2022-09-16T22:56:32.096Z,98570.66
2022-09-16T22:59:03.175Z,98570.75
2022-09-16T23:01:33.041Z,98573.66
2022-09-16T23:04:02.934Z,98573.00
2022-09-16T23:06:32.242Z,98576.50
2022-09-16T23:09:00.466Z,98576.25
2022-09-16T23:11:30.127Z,98577.56
2022-09-16T23:13:58.393Z,98584.09
2022-09-16T23:16:30.139Z,98582.34
2022-09-16T23:18:59.646Z,98588.78
2022-09-16T23:21:27.825Z,98588.09
2022-09-16T23:23:57.500Z,98592.25
2022-09-16T23:26:27.595Z,98591.84
2022-09-16T23:28:57.645Z,98597.59
2022-09-16T23:31:29.578Z,98591.84
2022-09-16T23:33:58.155Z,98594.78
2022-09-16T23:36:27.363Z,98597.69
2022-09-16T23:38:55.635Z,98591.66
2022-09-16T23:41:27.472Z,98599.06
2022-09-16T23:43:56.425Z,98606.53
2022-09-16T23:46:26.694Z,98594.91
2022-09-16T23:48:56.200Z,98607.09
2022-09-16T23:51:28.192Z,98597.75
2022-09-16T23:53:57.540Z,98612.66
2022-09-16T23:56:26.071Z,98605.69
2022-09-16T23:58:55.035Z,98609.94
